LFEV weather

Gray St Adrien Airfield
Gray St Adrien, Bourgogne-Franche-Comté, France

Public forecast

Using degrees Celsius for public forecast. Weather courtesy of forecast.io.

Closest aviation weather report (METAR) to Gray St Adrien Airfield

Closest report is Dijon-Bourgogne Airport, 23.7 nm (43.8 km) WSW. Retrieved 2020/08/08 23:30 UTC (3 minutes ago):

LFSD 082330Z AUTO 35003KT CAVOK 24/11 Q1017

Closest aviation forecast (TAF) to Gray St Adrien Airfield

Forecast is more than 12 hours old.

Closest forecast is Dijon-Bourgogne Airport, 23.7 nm (43.8 km) WSW. Retrieved 2015/06/01 00:11 UTC (5 years ago):

TAF LFSD 010600Z 0100/0124 CNL